sensor_id;sensor_type;location;lat;lon;timestamp;P1;durP1;ratioP1;P2;durP2;ratioP2
5521;SDS011;2783;48.730;8.006;2022-08-04T00:04:13;3.75;;;1.90;;
5521;SDS011;2783;48.730;8.006;2022-08-04T00:07:05;3.85;;;2.15;;
5521;SDS011;2783;48.730;8.006;2022-08-04T00:09:41;6.68;;;2.28;;
5521;SDS011;2783;48.730;8.006;2022-08-04T00:12:13;6.05;;;2.65;;
5521;SDS011;2783;48.730;8.006;2022-08-04T00:14:45;3.80;;;2.28;;
5521;SDS011;2783;48.730;8.006;2022-08-04T00:17:13;2.88;;;2.00;;
5521;SDS011;2783;48.730;8.006;2022-08-04T00:19:40;5.45;;;2.38;;
5521;SDS011;2783;48.730;8.006;2022-08-04T00:22:08;3.83;;;1.75;;
5521;SDS011;2783;48.730;8.006;2022-08-04T00:24:35;4.78;;;2.38;;
5521;SDS011;2783;48.730;8.006;2022-08-04T00:27:02;3.47;;;2.20;;
5521;SDS011;2783;48.730;8.006;2022-08-04T00:29:28;3.92;;;2.20;;
5521;SDS011;2783;48.730;8.006;2022-08-04T00:31:55;4.00;;;2.42;;
5521;SDS011;2783;48.730;8.006;2022-08-04T00:34:22;4.68;;;2.40;;
5521;SDS011;2783;48.730;8.006;2022-08-04T00:36:50;3.67;;;2.13;;
5521;SDS011;2783;48.730;8.006;2022-08-04T00:39:18;4.47;;;2.40;;
5521;SDS011;2783;48.730;8.006;2022-08-04T00:41:51;5.70;;;2.47;;
5521;SDS011;2783;48.730;8.006;2022-08-04T00:53:39;4.18;;;2.20;;
5521;SDS011;2783;48.730;8.006;2022-08-04T01:01:59;4.95;;;2.50;;
5521;SDS011;2783;48.730;8.006;2022-08-04T01:18:05;6.85;;;2.53;;
5521;SDS011;2783;48.730;8.006;2022-08-04T01:20:33;5.95;;;2.50;;
5521;SDS011;2783;48.730;8.006;2022-08-04T01:31:34;4.85;;;2.58;;
5521;SDS011;2783;48.730;8.006;2022-08-04T01:34:11;5.68;;;2.28;;
5521;SDS011;2783;48.730;8.006;2022-08-04T01:36:39;4.47;;;2.53;;
5521;SDS011;2783;48.730;8.006;2022-08-04T01:39:10;4.50;;;2.28;;
5521;SDS011;2783;48.730;8.006;2022-08-04T01:41:56;5.03;;;2.42;;
5521;SDS011;2783;48.730;8.006;2022-08-04T01:44:25;2.78;;;1.75;;
5521;SDS011;2783;48.730;8.006;2022-08-04T01:46:53;5.75;;;2.60;;
5521;SDS011;2783;48.730;8.006;2022-08-04T01:49:20;4.00;;;2.33;;
5521;SDS011;2783;48.730;8.006;2022-08-04T01:51:50;4.78;;;2.40;;
5521;SDS011;2783;48.730;8.006;2022-08-04T01:54:16;3.83;;;2.42;;
5521;SDS011;2783;48.730;8.006;2022-08-04T01:56:44;6.88;;;2.38;;
5521;SDS011;2783;48.730;8.006;2022-08-04T01:59:14;4.70;;;2.50;;
5521;SDS011;2783;48.730;8.006;2022-08-04T02:01:42;6.50;;;2.22;;
5521;SDS011;2783;48.730;8.006;2022-08-04T02:04:12;5.63;;;2.65;;
5521;SDS011;2783;48.730;8.006;2022-08-04T02:06:48;3.78;;;2.20;;
5521;SDS011;2783;48.730;8.006;2022-08-04T02:09:29;4.35;;;2.28;;
5521;SDS011;2783;48.730;8.006;2022-08-04T02:17:55;5.18;;;2.58;;
5521;SDS011;2783;48.730;8.006;2022-08-04T02:20:27;5.65;;;2.47;;
5521;SDS011;2783;48.730;8.006;2022-08-04T02:22:58;4.70;;;2.90;;
5521;SDS011;2783;48.730;8.006;2022-08-04T02:25:26;8.07;;;2.72;;
5521;SDS011;2783;48.730;8.006;2022-08-04T02:30:36;3.67;;;2.42;;
5521;SDS011;2783;48.730;8.006;2022-08-04T02:33:07;4.22;;;2.63;;
5521;SDS011;2783;48.730;8.006;2022-08-04T02:35:37;6.20;;;2.80;;
5521;SDS011;2783;48.730;8.006;2022-08-04T02:38:22;4.50;;;2.33;;
5521;SDS011;2783;48.730;8.006;2022-08-04T02:40:55;4.25;;;2.20;;
5521;SDS011;2783;48.730;8.006;2022-08-04T02:43:24;5.13;;;2.38;;
5521;SDS011;2783;48.730;8.006;2022-08-04T02:45:52;5.75;;;2.42;;
5521;SDS011;2783;48.730;8.006;2022-08-04T02:48:23;5.18;;;2.60;;
5521;SDS011;2783;48.730;8.006;2022-08-04T02:50:49;5.60;;;2.55;;
5521;SDS011;2783;48.730;8.006;2022-08-04T02:53:17;4.10;;;2.60;;
5521;SDS011;2783;48.730;8.006;2022-08-04T02:55:47;4.03;;;2.35;;
5521;SDS011;2783;48.730;8.006;2022-08-04T02:58:14;4.97;;;2.97;;
5521;SDS011;2783;48.730;8.006;2022-08-04T03:00:44;6.35;;;2.20;;
5521;SDS011;2783;48.730;8.006;2022-08-04T03:03:25;4.15;;;2.28;;
5521;SDS011;2783;48.730;8.006;2022-08-04T03:11:14;5.90;;;2.60;;
5521;SDS011;2783;48.730;8.006;2022-08-04T03:14:19;6.18;;;2.90;;
5521;SDS011;2783;48.730;8.006;2022-08-04T03:19:24;5.35;;;2.75;;
5521;SDS011;2783;48.730;8.006;2022-08-04T03:30:04;4.50;;;2.95;;
5521;SDS011;2783;48.730;8.006;2022-08-04T03:35:51;5.38;;;2.78;;
5521;SDS011;2783;48.730;8.006;2022-08-04T03:47:21;5.28;;;2.83;;
5521;SDS011;2783;48.730;8.006;2022-08-04T03:53:18;4.07;;;2.30;;
5521;SDS011;2783;48.730;8.006;2022-08-04T04:10:07;6.22;;;2.65;;
5521;SDS011;2783;48.730;8.006;2022-08-04T04:12:48;6.85;;;2.60;;
5521;SDS011;2783;48.730;8.006;2022-08-04T04:23:50;7.68;;;2.53;;
5521;SDS011;2783;48.730;8.006;2022-08-04T04:43:08;5.53;;;2.90;;
5521;SDS011;2783;48.730;8.006;2022-08-04T04:46:06;4.65;;;2.92;;
5521;SDS011;2783;48.730;8.006;2022-08-04T04:51:46;5.72;;;2.63;;
5521;SDS011;2783;48.730;8.006;2022-08-04T04:54:33;7.95;;;3.15;;
5521;SDS011;2783;48.730;8.006;2022-08-04T04:59:34;6.25;;;2.80;;
5521;SDS011;2783;48.730;8.006;2022-08-04T05:16:23;5.50;;;3.00;;
5521;SDS011;2783;48.730;8.006;2022-08-04T05:24:07;5.53;;;2.95;;
5521;SDS011;2783;48.730;8.006;2022-08-04T05:26:36;6.00;;;2.70;;
5521;SDS011;2783;48.730;8.006;2022-08-04T05:29:08;8.00;;;3.20;;
5521;SDS011;2783;48.730;8.006;2022-08-04T05:31:38;8.32;;;3.05;;
5521;SDS011;2783;48.730;8.006;2022-08-04T05:34:14;4.15;;;2.50;;
5521;SDS011;2783;48.730;8.006;2022-08-04T05:36:48;13.63;;;4.00;;
5521;SDS011;2783;48.730;8.006;2022-08-04T05:39:22;6.13;;;2.42;;
5521;SDS011;2783;48.730;8.006;2022-08-04T05:41:49;6.88;;;3.13;;
5521;SDS011;2783;48.730;8.006;2022-08-04T05:44:16;6.28;;;3.05;;
5521;SDS011;2783;48.730;8.006;2022-08-04T05:46:44;7.90;;;2.70;;
5521;SDS011;2783;48.730;8.006;2022-08-04T05:49:12;7.03;;;3.30;;
5521;SDS011;2783;48.730;8.006;2022-08-04T05:51:39;7.43;;;2.95;;
5521;SDS011;2783;48.730;8.006;2022-08-04T05:54:05;6.38;;;3.30;;
5521;SDS011;2783;48.730;8.006;2022-08-04T05:56:32;6.45;;;3.30;;
5521;SDS011;2783;48.730;8.006;2022-08-04T05:58:59;10.65;;;4.00;;
5521;SDS011;2783;48.730;8.006;2022-08-04T06:01:27;8.45;;;2.83;;
5521;SDS011;2783;48.730;8.006;2022-08-04T06:03:53;7.40;;;3.28;;
5521;SDS011;2783;48.730;8.006;2022-08-04T06:06:21;10.15;;;3.13;;
5521;SDS011;2783;48.730;8.006;2022-08-04T06:08:47;7.15;;;3.05;;
5521;SDS011;2783;48.730;8.006;2022-08-04T06:11:12;12.52;;;3.33;;
5521;SDS011;2783;48.730;8.006;2022-08-04T06:13:43;10.55;;;3.75;;
5521;SDS011;2783;48.730;8.006;2022-08-04T06:16:16;13.25;;;4.43;;
5521;SDS011;2783;48.730;8.006;2022-08-04T06:18:45;7.63;;;2.97;;
5521;SDS011;2783;48.730;8.006;2022-08-04T06:21:14;10.50;;;3.42;;
5521;SDS011;2783;48.730;8.006;2022-08-04T06:23:44;8.50;;;3.15;;
5521;SDS011;2783;48.730;8.006;2022-08-04T06:26:11;7.60;;;2.92;;
5521;SDS011;2783;48.730;8.006;2022-08-04T06:28:44;11.10;;;3.40;;
5521;SDS011;2783;48.730;8.006;2022-08-04T06:31:11;9.90;;;3.20;;
5521;SDS011;2783;48.730;8.006;2022-08-04T06:33:46;9.82;;;3.53;;
5521;SDS011;2783;48.730;8.006;2022-08-04T06:36:13;8.32;;;3.03;;
5521;SDS011;2783;48.730;8.006;2022-08-04T06:38:39;8.43;;;2.55;;
5521;SDS011;2783;48.730;8.006;2022-08-04T06:41:06;6.68;;;2.58;;
5521;SDS011;2783;48.730;8.006;2022-08-04T06:43:33;7.68;;;2.95;;
5521;SDS011;2783;48.730;8.006;2022-08-04T06:46:02;12.10;;;3.10;;
5521;SDS011;2783;48.730;8.006;2022-08-04T06:48:28;3.45;;;2.20;;
5521;SDS011;2783;48.730;8.006;2022-08-04T06:50:56;7.47;;;3.17;;
5521;SDS011;2783;48.730;8.006;2022-08-04T06:53:23;6.57;;;2.58;;
5521;SDS011;2783;48.730;8.006;2022-08-04T06:55:49;7.47;;;2.47;;
5521;SDS011;2783;48.730;8.006;2022-08-04T06:58:17;6.22;;;2.40;;
5521;SDS011;2783;48.730;8.006;2022-08-04T07:00:45;5.70;;;2.30;;
5521;SDS011;2783;48.730;8.006;2022-08-04T07:03:11;4.57;;;2.97;;
5521;SDS011;2783;48.730;8.006;2022-08-04T07:05:39;4.47;;;2.25;;
5521;SDS011;2783;48.730;8.006;2022-08-04T07:08:05;5.30;;;3.42;;
5521;SDS011;2783;48.730;8.006;2022-08-04T07:10:31;5.25;;;3.05;;
5521;SDS011;2783;48.730;8.006;2022-08-04T07:12:57;3.85;;;2.45;;
5521;SDS011;2783;48.730;8.006;2022-08-04T07:15:24;5.72;;;2.20;;
5521;SDS011;2783;48.730;8.006;2022-08-04T07:17:51;3.72;;;2.08;;
5521;SDS011;2783;48.730;8.006;2022-08-04T07:20:17;3.83;;;2.30;;
5521;SDS011;2783;48.730;8.006;2022-08-04T07:22:43;4.10;;;2.28;;
5521;SDS011;2783;48.730;8.006;2022-08-04T07:25:11;5.53;;;2.30;;
5521;SDS011;2783;48.730;8.006;2022-08-04T07:27:39;3.38;;;2.00;;
5521;SDS011;2783;48.730;8.006;2022-08-04T07:30:04;3.97;;;2.20;;
5521;SDS011;2783;48.730;8.006;2022-08-04T07:32:34;4.28;;;2.05;;
5521;SDS011;2783;48.730;8.006;2022-08-04T07:35:01;3.70;;;1.98;;
5521;SDS011;2783;48.730;8.006;2022-08-04T07:37:28;4.57;;;2.03;;
5521;SDS011;2783;48.730;8.006;2022-08-04T07:39:54;4.80;;;2.38;;
5521;SDS011;2783;48.730;8.006;2022-08-04T07:42:19;4.25;;;2.10;;
5521;SDS011;2783;48.730;8.006;2022-08-04T07:44:45;4.32;;;2.17;;
5521;SDS011;2783;48.730;8.006;2022-08-04T07:47:11;3.60;;;1.95;;
5521;SDS011;2783;48.730;8.006;2022-08-04T07:49:38;3.10;;;1.70;;
5521;SDS011;2783;48.730;8.006;2022-08-04T07:52:06;4.38;;;2.00;;
5521;SDS011;2783;48.730;8.006;2022-08-04T07:54:32;5.25;;;2.78;;
5521;SDS011;2783;48.730;8.006;2022-08-04T07:56:59;7.85;;;2.58;;
5521;SDS011;2783;48.730;8.006;2022-08-04T07:59:24;5.07;;;1.95;;
5521;SDS011;2783;48.730;8.006;2022-08-04T08:01:50;4.10;;;1.65;;
5521;SDS011;2783;48.730;8.006;2022-08-04T08:04:17;5.32;;;2.60;;
5521;SDS011;2783;48.730;8.006;2022-08-04T08:06:43;10.10;;;2.10;;
5521;SDS011;2783;48.730;8.006;2022-08-04T08:11:35;6.78;;;3.05;;
5521;SDS011;2783;48.730;8.006;2022-08-04T08:14:01;3.03;;;1.73;;
5521;SDS011;2783;48.730;8.006;2022-08-04T08:16:27;5.30;;;2.05;;
5521;SDS011;2783;48.730;8.006;2022-08-04T08:18:55;2.72;;;1.88;;
5521;SDS011;2783;48.730;8.006;2022-08-04T08:21:21;3.22;;;1.73;;
5521;SDS011;2783;48.730;8.006;2022-08-04T08:23:46;6.45;;;2.03;;
5521;SDS011;2783;48.730;8.006;2022-08-04T08:26:13;2.88;;;1.88;;
5521;SDS011;2783;48.730;8.006;2022-08-04T08:28:39;5.60;;;1.70;;
5521;SDS011;2783;48.730;8.006;2022-08-04T08:31:05;3.10;;;1.60;;
5521;SDS011;2783;48.730;8.006;2022-08-04T08:33:30;2.42;;;1.67;;
5521;SDS011;2783;48.730;8.006;2022-08-04T08:38:36;3.88;;;1.35;;
5521;SDS011;2783;48.730;8.006;2022-08-04T08:52:25;2.80;;;1.50;;
5521;SDS011;2783;48.730;8.006;2022-08-04T09:18:19;3.20;;;1.70;;
5521;SDS011;2783;48.730;8.006;2022-08-04T09:20:49;3.90;;;1.60;;
5521;SDS011;2783;48.730;8.006;2022-08-04T09:23:33;2.35;;;1.48;;
5521;SDS011;2783;48.730;8.006;2022-08-04T09:35:05;4.00;;;1.60;;
5521;SDS011;2783;48.730;8.006;2022-08-04T09:45:51;3.45;;;1.20;;
5521;SDS011;2783;48.730;8.006;2022-08-04T09:48:34;3.15;;;1.42;;
5521;SDS011;2783;48.730;8.006;2022-08-04T09:51:13;3.33;;;1.50;;
5521;SDS011;2783;48.730;8.006;2022-08-04T09:54:01;13.93;;;2.17;;
5521;SDS011;2783;48.730;8.006;2022-08-04T09:57:37;4.43;;;1.58;;
5521;SDS011;2783;48.730;8.006;2022-08-04T09:59:44;2.83;;;1.38;;
5521;SDS011;2783;48.730;8.006;2022-08-04T10:02:22;3.10;;;1.33;;
5521;SDS011;2783;48.730;8.006;2022-08-04T10:04:50;4.32;;;1.40;;
5521;SDS011;2783;48.730;8.006;2022-08-04T10:12:55;3.35;;;1.25;;
5521;SDS011;2783;48.730;8.006;2022-08-04T10:15:59;3.47;;;1.45;;
5521;SDS011;2783;48.730;8.006;2022-08-04T10:18:51;3.03;;;1.33;;
5521;SDS011;2783;48.730;8.006;2022-08-04T10:21:25;6.80;;;1.58;;
5521;SDS011;2783;48.730;8.006;2022-08-04T10:26:59;2.63;;;1.58;;
5521;SDS011;2783;48.730;8.006;2022-08-04T10:29:36;5.63;;;1.50;;
5521;SDS011;2783;48.730;8.006;2022-08-04T10:32:17;2.35;;;1.40;;
5521;SDS011;2783;48.730;8.006;2022-08-04T10:54:06;2.10;;;1.17;;
5521;SDS011;2783;48.730;8.006;2022-08-04T10:56:35;1.00;;;0.80;;
5521;SDS011;2783;48.730;8.006;2022-08-04T10:59:15;1.75;;;1.20;;
5521;SDS011;2783;48.730;8.006;2022-08-04T11:01:45;2.25;;;1.00;;
5521;SDS011;2783;48.730;8.006;2022-08-04T11:07:11;3.40;;;1.75;;
5521;SDS011;2783;48.730;8.006;2022-08-04T11:09:38;4.70;;;1.45;;
5521;SDS011;2783;48.730;8.006;2022-08-04T11:12:14;2.30;;;1.13;;
5521;SDS011;2783;48.730;8.006;2022-08-04T11:14:45;3.22;;;1.27;;
5521;SDS011;2783;48.730;8.006;2022-08-04T11:17:25;6.90;;;1.55;;
5521;SDS011;2783;48.730;8.006;2022-08-04T11:23:08;2.53;;;1.00;;
5521;SDS011;2783;48.730;8.006;2022-08-04T11:25:38;4.53;;;1.05;;
5521;SDS011;2783;48.730;8.006;2022-08-04T11:28:18;2.60;;;0.90;;
5521;SDS011;2783;48.730;8.006;2022-08-04T11:30:56;2.05;;;0.70;;
5521;SDS011;2783;48.730;8.006;2022-08-04T11:35:58;1.75;;;0.80;;
5521;SDS011;2783;48.730;8.006;2022-08-04T11:38:42;2.47;;;1.08;;
5521;SDS011;2783;48.730;8.006;2022-08-04T11:41:16;4.85;;;1.27;;
5521;SDS011;2783;48.730;8.006;2022-08-04T11:43:54;4.20;;;0.80;;
5521;SDS011;2783;48.730;8.006;2022-08-04T11:46:23;2.70;;;0.90;;
5521;SDS011;2783;48.730;8.006;2022-08-04T11:49:02;1.52;;;0.75;;
5521;SDS011;2783;48.730;8.006;2022-08-04T11:51:31;1.55;;;0.73;;
5521;SDS011;2783;48.730;8.006;2022-08-04T11:53:58;1.73;;;0.68;;
5521;SDS011;2783;48.730;8.006;2022-08-04T11:56:25;1.02;;;0.60;;
5521;SDS011;2783;48.730;8.006;2022-08-04T11:58:51;1.48;;;0.60;;
5521;SDS011;2783;48.730;8.006;2022-08-04T12:11:59;1.30;;;0.57;;
5521;SDS011;2783;48.730;8.006;2022-08-04T12:18:04;2.42;;;0.30;;
5521;SDS011;2783;48.730;8.006;2022-08-04T12:21:10;2.25;;;0.32;;
5521;SDS011;2783;48.730;8.006;2022-08-04T12:23:41;0.88;;;0.40;;
5521;SDS011;2783;48.730;8.006;2022-08-04T12:26:09;2.47;;;0.40;;
5521;SDS011;2783;48.730;8.006;2022-08-04T12:28:59;1.33;;;0.40;;
5521;SDS011;2783;48.730;8.006;2022-08-04T12:31:26;0.82;;;0.40;;
5521;SDS011;2783;48.730;8.006;2022-08-04T12:39:42;1.50;;;0.60;;
5521;SDS011;2783;48.730;8.006;2022-08-04T12:42:14;0.82;;;0.63;;
5521;SDS011;2783;48.730;8.006;2022-08-04T12:44:46;2.38;;;0.50;;
5521;SDS011;2783;48.730;8.006;2022-08-04T12:49:47;1.42;;;0.50;;
5521;SDS011;2783;48.730;8.006;2022-08-04T12:52:14;0.35;;;0.32;;
5521;SDS011;2783;48.730;8.006;2022-08-04T12:54:42;1.23;;;0.60;;
5521;SDS011;2783;48.730;8.006;2022-08-04T12:57:12;1.42;;;0.50;;
5521;SDS011;2783;48.730;8.006;2022-08-04T12:59:43;1.75;;;0.40;;
5521;SDS011;2783;48.730;8.006;2022-08-04T13:02:32;2.60;;;0.60;;
5521;SDS011;2783;48.730;8.006;2022-08-04T13:05:04;0.80;;;0.50;;
5521;SDS011;2783;48.730;8.006;2022-08-04T13:07:37;1.60;;;0.60;;
5521;SDS011;2783;48.730;8.006;2022-08-04T13:10:14;1.40;;;0.50;;
5521;SDS011;2783;48.730;8.006;2022-08-04T13:12:41;1.98;;;0.80;;
5521;SDS011;2783;48.730;8.006;2022-08-04T13:15:16;1.15;;;0.50;;
5521;SDS011;2783;48.730;8.006;2022-08-04T13:17:52;4.78;;;0.70;;
5521;SDS011;2783;48.730;8.006;2022-08-04T13:20:31;2.85;;;0.70;;
5521;SDS011;2783;48.730;8.006;2022-08-04T13:22:58;1.50;;;0.57;;
5521;SDS011;2783;48.730;8.006;2022-08-04T13:25:29;3.03;;;0.80;;
5521;SDS011;2783;48.730;8.006;2022-08-04T13:27:56;0.93;;;0.50;;
5521;SDS011;2783;48.730;8.006;2022-08-04T13:30:24;1.27;;;0.73;;
5521;SDS011;2783;48.730;8.006;2022-08-04T13:32:52;1.52;;;0.50;;
5521;SDS011;2783;48.730;8.006;2022-08-04T13:35:22;1.23;;;0.55;;
5521;SDS011;2783;48.730;8.006;2022-08-04T13:37:48;0.90;;;0.60;;
5521;SDS011;2783;48.730;8.006;2022-08-04T13:40:15;1.52;;;0.60;;
5521;SDS011;2783;48.730;8.006;2022-08-04T13:42:47;1.23;;;0.60;;
5521;SDS011;2783;48.730;8.006;2022-08-04T13:45:18;9.05;;;6.55;;
5521;SDS011;2783;48.730;8.006;2022-08-04T13:47:45;3.33;;;1.15;;
5521;SDS011;2783;48.730;8.006;2022-08-04T13:50:21;5.32;;;2.35;;
5521;SDS011;2783;48.730;8.006;2022-08-04T13:52:55;3.10;;;1.00;;
5521;SDS011;2783;48.730;8.006;2022-08-04T13:55:23;1.13;;;0.70;;
5521;SDS011;2783;48.730;8.006;2022-08-04T13:57:54;1.10;;;0.70;;
5521;SDS011;2783;48.730;8.006;2022-08-04T14:00:22;2.47;;;0.60;;
5521;SDS011;2783;48.730;8.006;2022-08-04T14:03:03;2.55;;;0.85;;
5521;SDS011;2783;48.730;8.006;2022-08-04T14:05:32;1.55;;;0.70;;
5521;SDS011;2783;48.730;8.006;2022-08-04T14:08:08;1.77;;;0.80;;
5521;SDS011;2783;48.730;8.006;2022-08-04T14:10:40;1.08;;;0.70;;
5521;SDS011;2783;48.730;8.006;2022-08-04T14:13:06;3.55;;;0.73;;
5521;SDS011;2783;48.730;8.006;2022-08-04T14:15:32;1.40;;;0.60;;
5521;SDS011;2783;48.730;8.006;2022-08-04T14:18:16;2.33;;;0.73;;
5521;SDS011;2783;48.730;8.006;2022-08-04T14:23:27;3.28;;;0.93;;
5521;SDS011;2783;48.730;8.006;2022-08-04T14:25:53;1.20;;;0.88;;
5521;SDS011;2783;48.730;8.006;2022-08-04T14:28:28;2.72;;;0.98;;
5521;SDS011;2783;48.730;8.006;2022-08-04T14:31:08;1.75;;;0.80;;
5521;SDS011;2783;48.730;8.006;2022-08-04T14:33:36;2.78;;;0.90;;
5521;SDS011;2783;48.730;8.006;2022-08-04T14:36:03;1.55;;;0.70;;
5521;SDS011;2783;48.730;8.006;2022-08-04T14:41:07;3.35;;;0.90;;
5521;SDS011;2783;48.730;8.006;2022-08-04T14:43:32;1.55;;;0.80;;
5521;SDS011;2783;48.730;8.006;2022-08-04T14:46:06;1.70;;;0.93;;
5521;SDS011;2783;48.730;8.006;2022-08-04T14:48:31;3.38;;;0.90;;
5521;SDS011;2783;48.730;8.006;2022-08-04T14:50:57;2.63;;;1.02;;
5521;SDS011;2783;48.730;8.006;2022-08-04T14:53:23;1.98;;;0.90;;
5521;SDS011;2783;48.730;8.006;2022-08-04T14:55:54;1.35;;;0.80;;
5521;SDS011;2783;48.730;8.006;2022-08-04T14:58:25;1.05;;;0.77;;
5521;SDS011;2783;48.730;8.006;2022-08-04T15:00:57;0.88;;;0.70;;
5521;SDS011;2783;48.730;8.006;2022-08-04T15:03:25;1.83;;;0.80;;
5521;SDS011;2783;48.730;8.006;2022-08-04T15:05:52;0.52;;;0.50;;
5521;SDS011;2783;48.730;8.006;2022-08-04T15:08:19;3.28;;;0.80;;
5521;SDS011;2783;48.730;8.006;2022-08-04T15:10:45;0.98;;;0.80;;
5521;SDS011;2783;48.730;8.006;2022-08-04T15:13:10;1.73;;;0.90;;
5521;SDS011;2783;48.730;8.006;2022-08-04T15:15:38;1.23;;;0.80;;
5521;SDS011;2783;48.730;8.006;2022-08-04T15:18:09;2.95;;;0.70;;
5521;SDS011;2783;48.730;8.006;2022-08-04T15:20:35;1.42;;;0.90;;
5521;SDS011;2783;48.730;8.006;2022-08-04T15:23:03;0.90;;;0.60;;
5521;SDS011;2783;48.730;8.006;2022-08-04T15:25:37;2.17;;;0.90;;
5521;SDS011;2783;48.730;8.006;2022-08-04T15:28:06;5.50;;;1.10;;
5521;SDS011;2783;48.730;8.006;2022-08-04T15:30:36;1.80;;;0.98;;
5521;SDS011;2783;48.730;8.006;2022-08-04T15:33:02;1.88;;;0.77;;
5521;SDS011;2783;48.730;8.006;2022-08-04T15:35:29;2.08;;;1.00;;
5521;SDS011;2783;48.730;8.006;2022-08-04T15:45:49;3.00;;;0.98;;
5521;SDS011;2783;48.730;8.006;2022-08-04T15:53:22;2.40;;;0.90;;
5521;SDS011;2783;48.730;8.006;2022-08-04T15:55:50;1.05;;;0.90;;
5521;SDS011;2783;48.730;8.006;2022-08-04T15:58:20;2.65;;;0.98;;
5521;SDS011;2783;48.730;8.006;2022-08-04T16:09:07;1.15;;;0.80;;
5521;SDS011;2783;48.730;8.006;2022-08-04T16:16:29;3.05;;;1.02;;
5521;SDS011;2783;48.730;8.006;2022-08-04T16:21:31;2.97;;;0.90;;
5521;SDS011;2783;48.730;8.006;2022-08-04T16:24:17;2.67;;;0.93;;
5521;SDS011;2783;48.730;8.006;2022-08-04T16:27:01;1.85;;;0.88;;
5521;SDS011;2783;48.730;8.006;2022-08-04T16:29:29;3.08;;;0.95;;
5521;SDS011;2783;48.730;8.006;2022-08-04T16:34:51;2.00;;;1.15;;
5521;SDS011;2783;48.730;8.006;2022-08-04T16:37:23;2.85;;;0.93;;
5521;SDS011;2783;48.730;8.006;2022-08-04T16:40:22;2.25;;;0.73;;
5521;SDS011;2783;48.730;8.006;2022-08-04T16:43:00;1.40;;;0.82;;
5521;SDS011;2783;48.730;8.006;2022-08-04T16:45:43;1.77;;;1.00;;
5521;SDS011;2783;48.730;8.006;2022-08-04T16:53:25;2.08;;;1.08;;
5521;SDS011;2783;48.730;8.006;2022-08-04T16:55:52;4.13;;;1.10;;
5521;SDS011;2783;48.730;8.006;2022-08-04T16:58:23;4.82;;;1.20;;
5521;SDS011;2783;48.730;8.006;2022-08-04T17:00:51;2.80;;;1.20;;
5521;SDS011;2783;48.730;8.006;2022-08-04T17:03:17;3.08;;;1.10;;
5521;SDS011;2783;48.730;8.006;2022-08-04T17:05:42;2.58;;;1.10;;
5521;SDS011;2783;48.730;8.006;2022-08-04T17:08:09;7.75;;;1.35;;
5521;SDS011;2783;48.730;8.006;2022-08-04T17:10:45;3.35;;;1.27;;
5521;SDS011;2783;48.730;8.006;2022-08-04T17:15:55;5.70;;;1.20;;
5521;SDS011;2783;48.730;8.006;2022-08-04T17:18:23;3.88;;;1.20;;
5521;SDS011;2783;48.730;8.006;2022-08-04T17:20:55;5.88;;;1.63;;
5521;SDS011;2783;48.730;8.006;2022-08-04T17:23:24;14.82;;;1.38;;
5521;SDS011;2783;48.730;8.006;2022-08-04T17:25:54;4.22;;;1.15;;
5521;SDS011;2783;48.730;8.006;2022-08-04T17:28:28;2.10;;;1.00;;
5521;SDS011;2783;48.730;8.006;2022-08-04T17:30:54;4.50;;;1.27;;
5521;SDS011;2783;48.730;8.006;2022-08-04T17:33:21;4.40;;;0.93;;
5521;SDS011;2783;48.730;8.006;2022-08-04T17:35:48;25.73;;;3.53;;
5521;SDS011;2783;48.730;8.006;2022-08-04T17:38:14;21.23;;;1.60;;
5521;SDS011;2783;48.730;8.006;2022-08-04T17:40:49;7.30;;;1.60;;
5521;SDS011;2783;48.730;8.006;2022-08-04T17:43:16;5.50;;;1.23;;
5521;SDS011;2783;48.730;8.006;2022-08-04T17:45:42;2.60;;;0.95;;
5521;SDS011;2783;48.730;8.006;2022-08-04T17:48:07;4.55;;;1.08;;
5521;SDS011;2783;48.730;8.006;2022-08-04T17:50:43;1.52;;;1.00;;
5521;SDS011;2783;48.730;8.006;2022-08-04T17:53:08;2.13;;;1.10;;
5521;SDS011;2783;48.730;8.006;2022-08-04T17:55:45;1.65;;;0.80;;
5521;SDS011;2783;48.730;8.006;2022-08-04T17:58:19;11.80;;;1.52;;
5521;SDS011;2783;48.730;8.006;2022-08-04T18:00:47;10.13;;;1.67;;
5521;SDS011;2783;48.730;8.006;2022-08-04T18:03:22;6.10;;;1.30;;
5521;SDS011;2783;48.730;8.006;2022-08-04T18:05:49;6.85;;;1.45;;
5521;SDS011;2783;48.730;8.006;2022-08-04T18:08:21;8.23;;;1.23;;
5521;SDS011;2783;48.730;8.006;2022-08-04T18:10:50;2.92;;;0.95;;
5521;SDS011;2783;48.730;8.006;2022-08-04T18:13:17;5.30;;;1.40;;
5521;SDS011;2783;48.730;8.006;2022-08-04T18:15:42;4.00;;;1.20;;
5521;SDS011;2783;48.730;8.006;2022-08-04T18:18:18;3.28;;;1.30;;
5521;SDS011;2783;48.730;8.006;2022-08-04T18:20:45;5.63;;;2.13;;
5521;SDS011;2783;48.730;8.006;2022-08-04T18:23:11;8.55;;;2.92;;
5521;SDS011;2783;48.730;8.006;2022-08-04T18:25:37;11.40;;;3.05;;
5521;SDS011;2783;48.730;8.006;2022-08-04T18:28:04;13.80;;;3.20;;
5521;SDS011;2783;48.730;8.006;2022-08-04T18:30:34;20.10;;;3.90;;
5521;SDS011;2783;48.730;8.006;2022-08-04T18:33:00;17.70;;;4.20;;
5521;SDS011;2783;48.730;8.006;2022-08-04T18:35:26;21.58;;;3.10;;
5521;SDS011;2783;48.730;8.006;2022-08-04T18:37:53;19.77;;;3.00;;
5521;SDS011;2783;48.730;8.006;2022-08-04T18:40:18;10.02;;;4.50;;
5521;SDS011;2783;48.730;8.006;2022-08-04T18:42:45;11.60;;;3.65;;
5521;SDS011;2783;48.730;8.006;2022-08-04T18:45:10;7.43;;;2.60;;
5521;SDS011;2783;48.730;8.006;2022-08-04T18:47:37;2.92;;;1.70;;
5521;SDS011;2783;48.730;8.006;2022-08-04T18:50:03;2.70;;;1.40;;
5521;SDS011;2783;48.730;8.006;2022-08-04T18:52:28;2.25;;;1.20;;
5521;SDS011;2783;48.730;8.006;2022-08-04T18:54:54;2.33;;;0.88;;
5521;SDS011;2783;48.730;8.006;2022-08-04T18:57:20;4.13;;;1.50;;
5521;SDS011;2783;48.730;8.006;2022-08-04T18:59:46;2.45;;;1.17;;
5521;SDS011;2783;48.730;8.006;2022-08-04T19:02:13;5.28;;;1.42;;
5521;SDS011;2783;48.730;8.006;2022-08-04T19:04:39;2.40;;;1.20;;
5521;SDS011;2783;48.730;8.006;2022-08-04T19:07:04;9.25;;;1.27;;
5521;SDS011;2783;48.730;8.006;2022-08-04T19:09:30;6.43;;;1.88;;
5521;SDS011;2783;48.730;8.006;2022-08-04T19:11:56;9.88;;;2.22;;
5521;SDS011;2783;48.730;8.006;2022-08-04T19:14:22;3.92;;;2.00;;
5521;SDS011;2783;48.730;8.006;2022-08-04T19:16:47;6.13;;;1.70;;
5521;SDS011;2783;48.730;8.006;2022-08-04T19:19:13;3.00;;;1.52;;
5521;SDS011;2783;48.730;8.006;2022-08-04T19:21:41;3.72;;;1.65;;
5521;SDS011;2783;48.730;8.006;2022-08-04T19:24:07;8.68;;;1.70;;
5521;SDS011;2783;48.730;8.006;2022-08-04T19:26:33;7.80;;;2.45;;
5521;SDS011;2783;48.730;8.006;2022-08-04T19:29:00;3.28;;;1.10;;
5521;SDS011;2783;48.730;8.006;2022-08-04T19:31:26;2.40;;;1.40;;
5521;SDS011;2783;48.730;8.006;2022-08-04T19:33:51;4.80;;;1.30;;
5521;SDS011;2783;48.730;8.006;2022-08-04T19:36:17;4.00;;;1.52;;
5521;SDS011;2783;48.730;8.006;2022-08-04T19:38:43;3.55;;;1.65;;
5521;SDS011;2783;48.730;8.006;2022-08-04T19:41:09;2.17;;;1.20;;
5521;SDS011;2783;48.730;8.006;2022-08-04T19:43:35;2.40;;;1.33;;
5521;SDS011;2783;48.730;8.006;2022-08-04T19:46:00;3.42;;;1.75;;
5521;SDS011;2783;48.730;8.006;2022-08-04T19:48:26;7.38;;;1.65;;
5521;SDS011;2783;48.730;8.006;2022-08-04T19:50:52;2.75;;;1.20;;
5521;SDS011;2783;48.730;8.006;2022-08-04T19:53:18;1.88;;;1.45;;
5521;SDS011;2783;48.730;8.006;2022-08-04T19:55:43;6.80;;;3.33;;
5521;SDS011;2783;48.730;8.006;2022-08-04T19:58:09;3.42;;;1.70;;
5521;SDS011;2783;48.730;8.006;2022-08-04T20:00:36;8.32;;;2.00;;
5521;SDS011;2783;48.730;8.006;2022-08-04T20:03:03;7.13;;;1.70;;
5521;SDS011;2783;48.730;8.006;2022-08-04T20:05:30;4.32;;;2.08;;
5521;SDS011;2783;48.730;8.006;2022-08-04T20:07:56;5.85;;;2.20;;
5521;SDS011;2783;48.730;8.006;2022-08-04T20:10:22;6.20;;;2.30;;
5521;SDS011;2783;48.730;8.006;2022-08-04T20:12:47;4.60;;;2.10;;
5521;SDS011;2783;48.730;8.006;2022-08-04T20:15:12;8.00;;;2.10;;
5521;SDS011;2783;48.730;8.006;2022-08-04T20:17:38;4.38;;;1.70;;
5521;SDS011;2783;48.730;8.006;2022-08-04T20:20:04;6.47;;;2.10;;
5521;SDS011;2783;48.730;8.006;2022-08-04T20:22:30;6.40;;;1.90;;
5521;SDS011;2783;48.730;8.006;2022-08-04T20:24:55;9.27;;;1.90;;
5521;SDS011;2783;48.730;8.006;2022-08-04T20:27:21;6.35;;;1.67;;
5521;SDS011;2783;48.730;8.006;2022-08-04T20:29:47;2.63;;;1.52;;
5521;SDS011;2783;48.730;8.006;2022-08-04T20:32:18;2.67;;;1.38;;
5521;SDS011;2783;48.730;8.006;2022-08-04T20:34:45;3.97;;;1.50;;
5521;SDS011;2783;48.730;8.006;2022-08-04T20:37:12;2.95;;;1.38;;
5521;SDS011;2783;48.730;8.006;2022-08-04T20:39:37;1.58;;;1.25;;